Time;durP1;ratioP1;P1;durP2;ratioP2;P2;SDS_P1;SDS_P2;PMS_P1;PMS_P2;Temp;Humidity;BMP_temperature;BMP_pressure;BME280_temperature;BME280_humidity;BME280_pressure;Samples;Min_cycle;Max_cycle;Signal;HPM_P1;HPM_P2
2021/12/10 00:02:02;;;;;;;5.60;1.80;;;10.10;99.90;;;;;;4996884;28;20224;-65
2021/12/10 00:04:35;;;;;;;10.83;3.53;;;10.10;99.90;;;;;;5027106;28;20716;-65
2021/12/10 00:07:32;;;;;;;7.35;2.10;;;10.00;99.90;;;;;;4999075;28;20517;-63
2021/12/10 00:10:07;;;;;;;7.17;1.83;;;10.00;99.90;;;;;;5002358;28;20866;-63
2021/12/10 00:12:49;;;;;;;5.17;2.17;;;10.00;99.90;;;;;;5034816;28;20299;-63
2021/12/10 00:15:22;;;;;;;6.00;2.13;;;10.00;99.90;;;;;;5002781;28;20275;-63
2021/12/10 00:17:50;;;;;;;4.27;1.80;;;10.00;99.90;;;;;;5005481;28;20275;-62
2021/12/10 00:20:18;;;;;;;5.43;2.00;;;10.00;99.90;;;;;;5005533;28;20189;-63
2021/12/10 00:22:57;;;;;;;8.80;2.13;;;10.00;99.90;;;;;;4999551;28;20626;-63
2021/12/10 00:25:36;;;;;;;4.47;2.00;;;10.00;99.90;;;;;;5020721;28;20192;-64
2021/12/10 00:28:22;;;;;;;6.93;2.30;;;10.00;99.90;;;;;;5005168;28;20346;-62
2021/12/10 00:31:06;;;;;;;6.00;2.53;;;10.00;99.90;;;;;;5005781;28;20299;-62
2021/12/10 00:33:43;;;;;;;11.30;2.50;;;10.00;99.90;;;;;;5006139;28;20804;-63
2021/12/10 00:36:10;;;;;;;10.03;2.37;;;10.00;99.90;;;;;;5005538;28;20299;-63
2021/12/10 00:38:37;;;;;;;4.07;2.00;;;10.00;99.90;;;;;;5001560;28;20200;-63
2021/12/10 00:41:08;;;;;;;7.00;2.33;;;10.00;99.90;;;;;;5004177;28;20258;-63
2021/12/10 00:43:37;;;;;;;9.07;2.40;;;10.00;99.90;;;;;;5004247;28;20196;-63
2021/12/10 00:46:04;;;;;;;4.30;2.00;;;10.00;99.90;;;;;;5005712;28;20646;-62
2021/12/10 00:48:31;;;;;;;10.47;2.30;;;10.00;99.90;;;;;;5005768;28;20185;-63
2021/12/10 00:50:59;;;;;;;7.47;2.03;;;10.10;99.90;;;;;;5003876;28;20197;-63
2021/12/10 00:53:26;;;;;;;5.97;2.03;;;10.10;99.90;;;;;;5037440;28;20227;-63
2021/12/10 00:55:54;;;;;;;7.50;2.17;;;10.10;99.90;;;;;;5006512;28;20193;-63
2021/12/10 00:58:22;;;;;;;8.73;2.73;;;10.10;99.90;;;;;;5007553;28;20191;-63
2021/12/10 01:00:55;;;;;;;5.00;1.97;;;10.10;99.90;;;;;;5008661;28;20302;-64
2021/12/10 01:03:35;;;;;;;4.97;1.90;;;10.10;99.90;;;;;;5024472;28;20669;-64
2021/12/10 01:06:07;;;;;;;7.30;2.10;;;10.10;99.90;;;;;;5040492;28;20542;-63
2021/12/10 01:08:38;;;;;;;5.73;2.30;;;10.10;99.90;;;;;;5008517;28;20195;-64
2021/12/10 01:11:16;;;;;;;6.43;2.07;;;10.10;99.90;;;;;;5023800;28;20812;-62
2021/12/10 01:13:46;;;;;;;7.90;2.20;;;10.10;99.90;;;;;;5006016;28;20354;-63
2021/12/10 01:27:30;;;;;;;5.30;1.70;;;10.20;99.90;;;;;;5023401;28;20201;-63
2021/12/10 01:30:09;;;;;;;6.73;2.00;;;10.10;99.90;;;;;;5008856;28;20180;-62
2021/12/10 01:32:43;;;;;;;11.00;2.27;;;10.20;99.90;;;;;;5007453;28;20281;-64
2021/12/10 01:35:17;;;;;;;6.90;2.47;;;10.10;99.90;;;;;;5006835;28;20271;-63
2021/12/10 01:37:43;;;;;;;6.73;2.00;;;10.10;99.90;;;;;;5008198;28;20200;-63
2021/12/10 01:40:11;;;;;;;14.33;2.37;;;10.20;99.90;;;;;;5007822;28;20208;-63
2021/12/10 01:42:47;;;;;;;7.83;2.10;;;10.10;99.90;;;;;;5007850;28;20274;-63
2021/12/10 01:45:26;;;;;;;9.87;2.10;;;10.10;99.90;;;;;;5008665;28;20184;-64
2021/12/10 01:48:02;;;;;;;10.07;2.87;;;10.10;99.90;;;;;;5039870;28;20192;-63
2021/12/10 01:50:30;;;;;;;5.43;2.10;;;10.10;99.90;;;;;;5007306;28;20904;-63
2021/12/10 01:53:00;;;;;;;5.77;2.10;;;10.10;99.90;;;;;;5023445;28;20192;-64
2021/12/10 01:55:30;;;;;;;5.27;2.20;;;10.10;99.90;;;;;;5010481;28;20628;-62
2021/12/10 01:57:58;;;;;;;13.20;1.90;;;10.00;99.90;;;;;;5009255;28;20184;-62
2021/12/10 02:00:30;;;;;;;6.40;2.10;;;10.00;99.90;;;;;;5007113;28;20197;-62
2021/12/10 02:02:57;;;;;;;13.10;2.43;;;10.00;99.90;;;;;;5006153;28;20189;-62
2021/12/10 02:05:24;;;;;;;9.50;2.47;;;10.00;99.90;;;;;;5006387;28;20200;-62
2021/12/10 02:07:53;;;;;;;9.27;2.10;;;10.00;99.90;;;;;;5008662;28;20200;-64
2021/12/10 02:10:22;;;;;;;5.10;2.10;;;10.00;99.90;;;;;;5007273;28;20189;-63
2021/12/10 02:12:49;;;;;;;4.73;1.93;;;10.00;99.90;;;;;;5006912;28;20232;-62
2021/12/10 02:15:16;;;;;;;7.43;2.13;;;10.00;99.90;;;;;;5006604;28;20201;-62
2021/12/10 02:17:47;;;;;;;5.70;2.27;;;10.00;99.90;;;;;;5007456;28;20747;-62
2021/12/10 02:20:32;;;;;;;5.40;2.10;;;9.90;99.90;;;;;;5007923;28;20188;-62
2021/12/10 02:23:02;;;;;;;3.93;1.93;;;10.00;99.90;;;;;;5008253;28;20201;-62
2021/12/10 02:25:32;;;;;;;6.70;2.00;;;10.00;99.90;;;;;;5006671;28;20283;-64
2021/12/10 02:27:59;;;;;;;4.50;2.10;;;10.00;99.90;;;;;;5004140;28;20216;-63
2021/12/10 02:30:29;;;;;;;4.20;1.90;;;10.00;99.90;;;;;;5004515;28;20189;-63
2021/12/10 02:32:56;;;;;;;10.63;2.33;;;10.00;99.90;;;;;;5005415;28;20519;-63
2021/12/10 02:35:24;;;;;;;6.17;2.10;;;10.00;99.90;;;;;;5007549;28;20670;-63
2021/12/10 02:37:51;;;;;;;5.93;2.20;;;10.00;99.90;;;;;;5007250;28;20208;-64
2021/12/10 02:40:21;;;;;;;4.00;2.13;;;10.00;99.90;;;;;;5021857;28;20324;-63
2021/12/10 02:42:49;;;;;;;5.67;2.00;;;10.00;99.90;;;;;;5005536;28;20230;-64
2021/12/10 02:45:19;;;;;;;3.83;2.13;;;10.00;99.90;;;;;;5004200;28;20193;-62
2021/12/10 02:47:48;;;;;;;10.70;2.20;;;10.00;99.90;;;;;;5005365;28;20193;-63
2021/12/10 02:50:21;;;;;;;5.80;1.93;;;10.00;99.90;;;;;;5005927;28;20299;-63
2021/12/10 02:52:48;;;;;;;3.50;2.17;;;10.00;99.90;;;;;;5005337;28;20206;-64
2021/12/10 02:55:16;;;;;;;7.87;2.10;;;9.90;99.90;;;;;;5007112;28;20254;-63
2021/12/10 02:57:47;;;;;;;7.43;2.23;;;9.90;99.90;;;;;;5003118;28;20213;-63
2021/12/10 03:00:27;;;;;;;5.77;1.97;;;9.90;99.90;;;;;;5006909;28;20309;-64
2021/12/10 03:02:53;;;;;;;4.73;1.67;;;9.90;99.90;;;;;;5004935;28;20196;-63
2021/12/10 03:05:20;;;;;;;3.90;1.93;;;9.90;99.90;;;;;;5006602;28;20195;-62
2021/12/10 03:07:46;;;;;;;5.57;1.90;;;9.90;99.90;;;;;;5004325;28;20728;-63
2021/12/10 03:10:22;;;;;;;5.23;2.23;;;9.90;99.90;;;;;;5007202;28;20644;-63
2021/12/10 03:12:49;;;;;;;7.07;2.40;;;9.90;99.90;;;;;;4995006;28;20200;-65
2021/12/10 03:15:19;;;;;;;4.03;2.07;;;9.90;99.90;;;;;;5006051;28;20193;-65
2021/12/10 03:17:47;;;;;;;8.27;2.30;;;10.00;99.90;;;;;;5038639;28;20193;-64
2021/12/10 03:20:20;;;;;;;5.67;2.20;;;10.00;99.90;;;;;;5006964;28;20212;-64
2021/12/10 03:22:48;;;;;;;4.93;2.20;;;10.00;99.90;;;;;;5035747;28;20276;-63
2021/12/10 03:25:17;;;;;;;8.40;2.40;;;10.00;99.90;;;;;;5004847;28;20196;-63
2021/12/10 03:27:46;;;;;;;5.03;1.97;;;10.00;99.90;;;;;;5006520;28;20239;-62
2021/12/10 03:30:24;;;;;;;6.03;2.17;;;10.00;99.90;;;;;;5005677;28;20219;-63
2021/12/10 03:32:50;;;;;;;6.07;2.17;;;10.00;99.90;;;;;;5035408;28;20189;-63
2021/12/10 03:35:25;;;;;;;5.43;2.43;;;10.00;99.90;;;;;;5005358;28;20200;-64
2021/12/10 03:37:53;;;;;;;5.33;2.03;;;10.00;99.90;;;;;;5006418;28;20235;-63
2021/12/10 03:40:20;;;;;;;4.73;1.97;;;10.00;99.90;;;;;;5006127;28;20193;-64
2021/12/10 03:42:48;;;;;;;5.10;2.17;;;10.00;99.90;;;;;;5004890;28;20258;-63
2021/12/10 03:45:17;;;;;;;6.00;2.07;;;10.00;99.90;;;;;;5004517;28;20200;-63
2021/12/10 03:47:46;;;;;;;8.97;2.27;;;10.00;99.90;;;;;;5005779;28;20276;-64
2021/12/10 03:50:26;;;;;;;9.37;2.30;;;10.00;99.90;;;;;;5006119;28;20189;-64
2021/12/10 03:52:52;;;;;;;8.30;2.60;;;10.00;99.90;;;;;;5006225;28;20283;-63
2021/12/10 03:55:21;;;;;;;12.17;2.40;;;10.10;99.90;;;;;;5021697;28;20220;-63
2021/12/10 03:57:48;;;;;;;12.03;2.30;;;10.10;99.90;;;;;;5001626;28;20284;-64
2021/12/10 04:00:20;;;;;;;11.03;2.30;;;10.10;99.90;;;;;;5005643;28;20188;-63
2021/12/10 04:02:48;;;;;;;8.03;2.30;;;10.10;99.90;;;;;;5004801;28;20270;-63
2021/12/10 04:05:15;;;;;;;10.60;2.40;;;10.10;99.90;;;;;;5004708;28;20715;-62
2021/12/10 04:07:42;;;;;;;7.67;2.17;;;10.10;99.90;;;;;;5020900;28;20271;-63
2021/12/10 04:10:14;;;;;;;10.00;2.50;;;10.10;99.90;;;;;;4986968;28;20276;-62
2021/12/10 04:12:41;;;;;;;6.80;2.17;;;10.10;99.90;;;;;;5003427;28;20636;-62
2021/12/10 04:15:10;;;;;;;6.47;2.17;;;10.10;99.90;;;;;;5005704;28;20235;-63
2021/12/10 04:17:38;;;;;;;5.53;1.93;;;10.10;99.90;;;;;;5004596;28;20286;-64
2021/12/10 04:20:08;;;;;;;6.20;1.90;;;10.00;99.90;;;;;;5004037;28;20599;-64
2021/12/10 04:22:34;;;;;;;8.87;2.23;;;10.00;99.90;;;;;;5007009;28;20220;-64
2021/12/10 04:25:06;;;;;;;7.60;2.30;;;10.00;99.90;;;;;;5005115;28;20708;-64
2021/12/10 04:27:34;;;;;;;5.47;1.97;;;10.00;99.90;;;;;;5005248;28;20212;-63
2021/12/10 04:30:01;;;;;;;2.57;1.90;;;10.00;99.90;;;;;;5005533;28;20227;-64
2021/12/10 04:32:28;;;;;;;3.80;1.73;;;9.90;99.90;;;;;;5020327;28;20228;-62
2021/12/10 04:34:55;;;;;;;6.90;2.30;;;10.00;99.90;;;;;;5009404;28;20328;-63
2021/12/10 04:37:22;;;;;;;9.70;2.00;;;10.00;99.90;;;;;;5009805;28;20205;-63
2021/12/10 04:39:49;;;;;;;9.13;2.20;;;10.10;99.90;;;;;;5009435;28;20197;-62
2021/12/10 04:42:24;;;;;;;4.43;2.13;;;10.10;99.90;;;;;;5008092;28;20248;-63
2021/12/10 04:44:59;;;;;;;9.00;2.00;;;10.10;99.90;;;;;;5008671;28;20250;-64
2021/12/10 04:47:28;;;;;;;7.13;2.03;;;10.20;99.90;;;;;;5009072;28;20798;-64
2021/12/10 04:49:55;;;;;;;5.13;1.90;;;10.30;99.90;;;;;;5024550;28;20193;-63
2021/12/10 04:52:22;;;;;;;3.70;2.27;;;10.30;99.90;;;;;;5008771;28;20982;-64
2021/12/10 04:54:49;;;;;;;6.23;1.97;;;10.30;99.90;;;;;;5028135;28;20275;-63
2021/12/10 04:57:17;;;;;;;8.53;1.90;;;10.30;99.90;;;;;;5008428;28;20573;-63
2021/12/10 04:59:43;;;;;;;4.10;1.90;;;10.30;99.90;;;;;;5024072;28;20197;-63
2021/12/10 05:02:13;;;;;;;4.50;2.00;;;10.30;99.90;;;;;;5008520;28;20239;-62
2021/12/10 05:04:43;;;;;;;6.90;1.77;;;10.30;99.90;;;;;;5007101;28;20184;-62
2021/12/10 05:07:12;;;;;;;7.97;1.83;;;10.40;99.90;;;;;;5009344;28;20285;-64
2021/12/10 05:09:39;;;;;;;3.90;1.77;;;10.40;99.90;;;;;;5007827;28;20614;-66
2021/12/10 05:12:06;;;;;;;7.47;1.77;;;10.40;99.90;;;;;;5008130;28;20197;-62
2021/12/10 05:14:33;;;;;;;6.33;1.77;;;10.40;99.90;;;;;;5008109;28;20328;-63
2021/12/10 05:17:05;;;;;;;7.67;1.80;;;10.40;99.90;;;;;;5007554;28;20185;-61
2021/12/10 05:19:33;;;;;;;10.30;2.10;;;10.40;99.90;;;;;;5008727;28;20193;-62
2021/12/10 05:22:03;;;;;;;4.50;1.70;;;10.50;99.90;;;;;;5008543;28;20282;-62
2021/12/10 05:24:30;;;;;;;5.60;1.50;;;10.50;99.90;;;;;;5008319;28;20204;-62
2021/12/10 05:26:59;;;;;;;5.13;1.70;;;10.60;99.90;;;;;;5007869;28;20204;-62
2021/12/10 05:29:25;;;;;;;9.13;1.70;;;10.60;99.90;;;;;;5008646;28;20456;-62
2021/12/10 05:31:54;;;;;;;5.97;1.77;;;10.60;99.90;;;;;;5006902;28;20211;-61
2021/12/10 05:34:21;;;;;;;8.27;2.10;;;10.60;99.90;;;;;;5008214;28;20188;-62
2021/12/10 05:36:48;;;;;;;6.60;1.60;;;10.60;99.90;;;;;;5008302;28;20319;-63
2021/12/10 05:39:17;;;;;;;8.37;1.80;;;10.70;99.90;;;;;;5006732;28;20196;-62
2021/12/10 05:41:44;;;;;;;7.00;1.87;;;10.70;99.90;;;;;;5007631;28;20304;-64
2021/12/10 05:44:10;;;;;;;4.00;1.63;;;10.80;99.90;;;;;;5021909;28;20209;-62
2021/12/10 05:46:38;;;;;;;6.73;1.77;;;10.80;99.90;;;;;;5006880;28;20192;-62
2021/12/10 05:49:05;;;;;;;8.20;1.37;;;10.90;99.90;;;;;;5007626;28;20219;-62
2021/12/10 05:51:32;;;;;;;8.93;1.97;;;10.90;99.90;;;;;;4999734;28;20193;-63
2021/12/10 05:53:59;;;;;;;7.00;1.70;;;10.90;99.90;;;;;;5007076;28;20251;-62
2021/12/10 05:56:25;;;;;;;7.13;1.70;;;10.90;99.90;;;;;;5008277;28;20192;-62
2021/12/10 05:58:52;;;;;;;10.27;1.40;;;11.00;99.90;;;;;;5006124;28;20227;-62
2021/12/10 06:01:20;;;;;;;5.40;1.63;;;11.00;99.90;;;;;;5007658;28;20565;-63
2021/12/10 06:03:53;;;;;;;5.23;2.00;;;11.10;99.90;;;;;;5006399;28;20192;-63
2021/12/10 06:06:25;;;;;;;4.87;1.57;;;11.10;99.90;;;;;;5007489;28;20239;-62
2021/12/10 06:08:52;;;;;;;11.63;1.70;;;11.20;99.90;;;;;;5007200;28;20189;-61
2021/12/10 06:11:20;;;;;;;6.73;1.73;;;11.20;99.90;;;;;;5006340;28;20211;-63
2021/12/10 06:13:47;;;;;;;5.73;1.90;;;11.30;99.90;;;;;;5005236;28;20215;-64
2021/12/10 06:16:16;;;;;;;4.93;1.73;;;11.30;99.90;;;;;;5007955;28;20193;-62
2021/12/10 06:18:43;;;;;;;7.40;1.90;;;11.40;99.90;;;;;;5005927;28;20220;-64
2021/12/10 06:21:10;;;;;;;5.43;1.67;;;11.50;99.90;;;;;;5006259;28;20209;-63
2021/12/10 06:23:36;;;;;;;7.27;1.97;;;11.50;99.90;;;;;;5039093;28;20204;-64
2021/12/10 06:26:04;;;;;;;10.13;1.83;;;11.60;99.90;;;;;;5006962;28;20585;-65
2021/12/10 06:28:32;;;;;;;8.97;1.87;;;11.60;99.90;;;;;;5006310;28;20571;-64
2021/12/10 06:30:59;;;;;;;8.63;1.97;;;11.70;99.90;;;;;;5038070;28;20193;-63
2021/12/10 06:33:29;;;;;;;5.10;1.73;;;11.70;99.90;;;;;;5006807;28;20213;-63
2021/12/10 06:36:01;;;;;;;5.97;1.60;;;11.80;99.90;;;;;;5007328;28;20200;-64
2021/12/10 06:38:27;;;;;;;6.17;2.07;;;11.80;99.90;;;;;;5006820;28;20319;-64
2021/12/10 06:40:54;;;;;;;8.83;2.47;;;11.80;99.90;;;;;;5006220;28;20217;-62
2021/12/10 06:43:22;;;;;;;9.77;2.30;;;11.80;99.90;;;;;;5005726;28;20280;-63
2021/12/10 06:45:51;;;;;;;8.23;2.00;;;11.80;99.90;;;;;;5007222;28;20197;-64
2021/12/10 06:48:21;;;;;;;8.63;2.13;;;11.90;99.90;;;;;;5004704;28;20193;-65
2021/12/10 06:50:54;;;;;;;6.33;1.90;;;12.00;99.90;;;;;;5006677;28;20191;-63
2021/12/10 06:53:26;;;;;;;5.37;1.80;;;12.00;99.90;;;;;;5007052;28;20185;-64
2021/12/10 06:55:53;;;;;;;6.53;2.13;;;12.10;99.90;;;;;;5016770;28;20805;-65
2021/12/10 06:58:23;;;;;;;8.57;2.30;;;12.20;99.90;;;;;;5004660;28;20185;-64
2021/12/10 07:00:59;;;;;;;10.03;2.03;;;12.30;99.90;;;;;;5005912;28;20664;-63
2021/12/10 07:03:28;;;;;;;12.67;2.10;;;12.40;99.90;;;;;;5000486;28;20238;-62
2021/12/10 07:05:59;;;;;;;9.43;2.10;;;12.40;99.90;;;;;;5007132;28;20192;-63
2021/12/10 07:08:29;;;;;;;6.30;1.70;;;12.50;99.90;;;;;;5005016;28;20193;-63
2021/12/10 07:10:57;;;;;;;9.73;2.10;;;12.50;99.90;;;;;;5004081;28;20715;-64
2021/12/10 07:13:24;;;;;;;7.83;1.77;;;12.60;99.90;;;;;;5037490;28;20654;-62
2021/12/10 07:15:52;;;;;;;9.80;1.90;;;12.60;99.90;;;;;;5021262;28;20243;-64
2021/12/10 07:18:22;;;;;;;11.13;2.40;;;12.70;99.90;;;;;;5003418;28;20263;-64
2021/12/10 07:20:51;;;;;;;8.10;2.23;;;12.70;99.90;;;;;;5004299;28;20209;-63
2021/12/10 07:23:19;;;;;;;11.07;2.27;;;12.80;99.90;;;;;;5020547;28;20215;-65
2021/12/10 07:25:46;;;;;;;5.73;2.00;;;12.80;99.90;;;;;;5037429;28;20189;-65
2021/12/10 07:28:14;;;;;;;9.53;2.77;;;12.90;99.90;;;;;;5006141;28;20673;-64
2021/12/10 07:30:41;;;;;;;8.83;2.17;;;12.90;99.90;;;;;;5005137;28;20193;-62
2021/12/10 07:33:08;;;;;;;7.90;2.13;;;12.90;99.90;;;;;;5005837;28;20268;-63
2021/12/10 07:35:37;;;;;;;9.20;2.30;;;12.90;99.90;;;;;;5003539;28;22300;-63
2021/12/10 07:38:06;;;;;;;9.03;3.07;;;12.90;99.90;;;;;;5004998;28;20716;-63
2021/12/10 07:40:35;;;;;;;8.80;2.70;;;13.00;99.90;;;;;;5004521;28;20613;-65
2021/12/10 07:43:03;;;;;;;9.43;2.03;;;12.90;99.90;;;;;;5001924;28;20239;-64
2021/12/10 07:45:29;;;;;;;9.77;2.07;;;13.00;99.90;;;;;;5005545;28;20200;-63
2021/12/10 07:47:59;;;;;;;9.77;2.23;;;13.00;99.90;;;;;;5006096;28;20185;-64
2021/12/10 07:50:34;;;;;;;13.97;2.30;;;13.00;99.90;;;;;;5005007;28;20215;-63
2021/12/10 07:53:03;;;;;;;8.47;2.00;;;13.10;99.90;;;;;;5004024;28;20701;-64
2021/12/10 07:55:35;;;;;;;12.07;2.20;;;13.10;99.90;;;;;;5011473;28;20196;-63
2021/12/10 07:58:05;;;;;;;7.27;2.07;;;13.10;99.90;;;;;;5002583;28;20199;-64
2021/12/10 08:00:36;;;;;;;9.97;2.20;;;13.20;99.90;;;;;;5003933;28;20192;-64
2021/12/10 08:03:04;;;;;;;9.23;2.30;;;13.20;99.90;;;;;;5003432;28;20207;-63
2021/12/10 08:05:30;;;;;;;5.87;2.17;;;13.30;99.90;;;;;;5003409;28;20212;-63
2021/12/10 08:07:57;;;;;;;10.13;2.57;;;13.30;99.90;;;;;;5003941;28;20196;-62
2021/12/10 08:10:23;;;;;;;6.27;2.20;;;13.30;99.90;;;;;;5002854;28;20239;-62
2021/12/10 08:12:50;;;;;;;12.13;2.23;;;13.40;99.90;;;;;;5002043;28;20634;-63
2021/12/10 08:15:17;;;;;;;12.57;2.93;;;13.40;99.90;;;;;;4985721;28;20193;-64
2021/12/10 08:17:46;;;;;;;9.43;2.37;;;13.40;99.90;;;;;;5001766;28;20201;-65
2021/12/10 08:20:19;;;;;;;9.47;2.00;;;13.40;99.90;;;;;;5019774;28;20280;-64
2021/12/10 08:22:47;;;;;;;10.67;1.93;;;13.40;99.90;;;;;;4997558;28;20267;-65
2021/12/10 08:25:15;;;;;;;7.97;1.77;;;13.40;99.90;;;;;;4999379;28;20188;-64
2021/12/10 08:27:43;;;;;;;9.97;2.17;;;13.40;99.90;;;;;;5018489;28;20208;-64
2021/12/10 08:30:14;;;;;;;5.03;2.00;;;13.50;99.90;;;;;;5000822;28;20190;-65
2021/12/10 08:32:42;;;;;;;7.93;1.80;;;13.50;99.90;;;;;;4996679;28;20272;-63
2021/12/10 08:35:15;;;;;;;9.27;1.97;;;13.50;99.90;;;;;;5004122;28;20189;-65
2021/12/10 08:37:42;;;;;;;8.43;2.67;;;13.60;99.90;;;;;;5002911;28;20228;-63
2021/12/10 08:40:14;;;;;;;8.60;1.90;;;13.60;99.90;;;;;;5001021;28;20246;-64
2021/12/10 08:42:41;;;;;;;10.00;2.10;;;13.70;99.90;;;;;;5006847;28;20224;-64
2021/12/10 08:45:08;;;;;;;6.67;1.80;;;13.70;99.90;;;;;;5036512;28;20189;-64
2021/12/10 08:47:35;;;;;;;8.90;2.07;;;13.80;99.90;;;;;;5036049;28;20189;-65
2021/12/10 08:50:05;;;;;;;8.50;2.17;;;14.00;99.90;;;;;;4988123;28;21001;-64
2021/12/10 08:52:32;;;;;;;11.13;2.00;;;14.00;99.90;;;;;;5013496;28;20537;-64
2021/12/10 08:54:59;;;;;;;12.30;2.30;;;14.00;99.90;;;;;;5005574;28;20304;-63
2021/12/10 08:57:26;;;;;;;5.90;2.20;;;14.00;99.90;;;;;;5011300;28;20200;-64
2021/12/10 08:59:54;;;;;;;8.03;2.30;;;14.10;99.90;;;;;;5006897;28;20220;-64
2021/12/10 09:02:20;;;;;;;10.53;2.43;;;14.00;99.90;;;;;;5000940;28;20212;-63
2021/12/10 09:04:47;;;;;;;8.50;2.00;;;14.00;99.90;;;;;;5002363;28;20188;-64
2021/12/10 09:07:17;;;;;;;7.93;1.77;;;14.00;99.90;;;;;;5017708;28;20270;-63
2021/12/10 09:09:47;;;;;;;7.20;2.10;;;14.00;99.90;;;;;;5001022;28;20196;-64
2021/12/10 09:12:21;;;;;;;6.67;2.40;;;14.00;99.90;;;;;;4999454;28;20204;-64
2021/12/10 09:14:52;;;;;;;8.43;1.90;;;14.00;99.90;;;;;;4999350;28;20219;-64
2021/12/10 09:17:25;;;;;;;12.47;2.23;;;14.10;99.90;;;;;;4995870;28;20711;-64
2021/12/10 09:19:55;;;;;;;6.80;2.10;;;14.20;99.90;;;;;;5002755;28;20279;-65
2021/12/10 09:22:23;;;;;;;9.83;1.77;;;14.30;99.90;;;;;;5002196;28;20304;-65
2021/12/10 09:24:54;;;;;;;12.83;2.00;;;14.30;99.90;;;;;;5005759;28;20247;-64
2021/12/10 09:27:21;;;;;;;13.03;2.20;;;14.40;99.90;;;;;;5013799;28;20244;-65
2021/12/10 09:29:50;;;;;;;5.07;1.80;;;14.50;99.90;;;;;;5003897;28;20212;-64
2021/12/10 09:32:20;;;;;;;4.93;1.50;;;14.70;99.90;;;;;;5000916;28;20221;-64
2021/12/10 09:34:49;;;;;;;6.23;1.83;;;14.70;99.90;;;;;;5004803;28;20202;-65
2021/12/10 09:37:17;;;;;;;10.43;1.90;;;14.80;99.90;;;;;;5005466;28;20251;-64
2021/12/10 09:39:47;;;;;;;9.00;1.63;;;14.80;99.90;;;;;;4992620;28;20185;-64
2021/12/10 09:42:14;;;;;;;5.23;1.70;;;14.90;99.90;;;;;;5004786;28;20220;-64
2021/12/10 09:44:42;;;;;;;7.10;1.80;;;15.00;99.90;;;;;;5036311;28;20558;-65
2021/12/10 09:47:14;;;;;;;4.87;1.67;;;15.00;99.90;;;;;;5002479;28;20224;-65
2021/12/10 09:49:46;;;;;;;9.23;2.20;;;15.00;99.90;;;;;;5001761;28;20227;-64
2021/12/10 09:52:17;;;;;;;6.10;1.93;;;15.00;99.90;;;;;;5005699;28;20653;-63
2021/12/10 09:54:45;;;;;;;7.63;2.23;;;14.90;99.90;;;;;;5004581;28;20185;-64
2021/12/10 09:57:29;;;;;;;7.57;2.47;;;14.90;99.90;;;;;;5003140;28;20207;-64
2021/12/10 10:00:00;;;;;;;6.93;1.67;;;14.80;99.90;;;;;;5002899;28;20220;-64
2021/12/10 10:02:30;;;;;;;9.73;2.40;;;14.80;99.90;;;;;;5004432;28;20303;-65
2021/12/10 10:04:56;;;;;;;5.43;2.17;;;14.80;99.90;;;;;;5006935;28;20276;-63
2021/12/10 10:07:29;;;;;;;7.57;2.03;;;14.80;99.90;;;;;;5004151;28;20634;-64
2021/12/10 10:10:13;;;;;;;7.60;1.93;;;14.80;99.90;;;;;;5006474;28;20185;-64
2021/12/10 10:12:45;;;;;;;7.40;2.17;;;14.90;99.90;;;;;;5001947;28;20231;-64
2021/12/10 10:15:21;;;;;;;4.03;1.73;;;15.00;99.90;;;;;;5002593;28;20979;-64
2021/12/10 10:17:49;;;;;;;5.90;2.00;;;15.10;99.90;;;;;;5015041;28;20902;-64
2021/12/10 10:20:19;;;;;;;9.80;1.90;;;15.20;99.90;;;;;;5003684;28;20284;-65
2021/12/10 10:22:47;;;;;;;6.80;1.97;;;15.30;99.90;;;;;;5009447;28;20323;-65
2021/12/10 10:25:16;;;;;;;8.00;2.13;;;15.40;99.90;;;;;;5002171;28;20221;-64
2021/12/10 10:27:44;;;;;;;6.23;2.23;;;15.60;99.90;;;;;;5005514;28;20344;-65
2021/12/10 10:30:23;;;;;;;10.23;3.47;;;15.90;99.90;;;;;;4998690;28;20750;-64
2021/12/10 10:32:50;;;;;;;11.20;3.10;;;16.00;99.90;;;;;;5001903;28;20275;-64
2021/12/10 10:35:27;;;;;;;6.27;2.93;;;16.30;99.90;;;;;;5004942;28;20578;-64
2021/12/10 10:37:58;;;;;;;9.57;3.70;;;17.50;99.90;;;;;;5001962;28;20196;-64
2021/12/10 10:40:31;;;;;;;8.87;3.93;;;18.20;99.90;;;;;;5006467;28;20895;-64
2021/12/10 10:42:58;;;;;;;9.53;4.20;;;19.60;99.90;;;;;;5002337;28;20290;-65
2021/12/10 10:45:31;;;;;;;10.63;4.10;;;19.00;99.90;;;;;;5000919;28;20299;-65
2021/12/10 10:47:59;;;;;;;9.87;4.33;;;18.60;99.90;;;;;;5000623;28;20840;-65
2021/12/10 10:50:34;;;;;;;11.67;4.50;;;18.50;99.90;;;;;;5032579;28;20185;-65
2021/12/10 10:53:11;;;;;;;10.37;4.00;;;18.30;99.90;;;;;;4986327;28;20220;-66
2021/12/10 10:56:37;;;;;;;7.47;3.37;;;17.70;99.90;;;;;;5035164;28;20201;-65
2021/12/10 10:59:26;;;;;;;9.77;2.83;;;17.40;99.90;;;;;;5002200;28;20204;-65
2021/12/10 11:02:08;;;;;;;16.87;3.10;;;17.60;99.90;;;;;;5001789;28;20209;-64
2021/12/10 11:04:50;;;;;;;9.27;2.50;;;17.50;99.90;;;;;;5003953;28;20255;-64
2021/12/10 11:07:25;;;;;;;8.30;2.57;;;17.20;99.90;;;;;;5002943;28;20199;-64
2021/12/10 11:10:02;;;;;;;8.37;2.80;;;17.00;99.90;;;;;;4999810;28;20259;-65
2021/12/10 11:12:40;;;;;;;4.50;2.20;;;16.70;99.90;;;;;;5001946;28;20196;-64
2021/12/10 11:15:14;;;;;;;5.73;2.43;;;16.60;99.90;;;;;;5001398;28;20197;-65
2021/12/10 11:17:49;;;;;;;10.00;2.30;;;16.50;99.90;;;;;;4996920;28;20188;-64
2021/12/10 11:20:35;;;;;;;6.07;2.33;;;16.40;99.90;;;;;;5002920;28;20184;-64
2021/12/10 11:23:10;;;;;;;12.20;2.63;;;16.30;99.90;;;;;;5000977;28;20220;-65
2021/12/10 11:25:43;;;;;;;7.03;1.97;;;16.20;99.90;;;;;;5003571;28;20196;-64
2021/12/10 11:28:19;;;;;;;9.47;2.10;;;16.20;99.90;;;;;;5004514;28;20205;-64
2021/12/10 11:30:53;;;;;;;8.43;1.97;;;16.30;99.90;;;;;;5015506;28;20212;-63
2021/12/10 11:33:24;;;;;;;12.17;2.27;;;16.40;99.90;;;;;;5004187;28;20191;-63
2021/12/10 11:36:07;;;;;;;9.10;2.47;;;16.60;99.90;;;;;;4999612;28;20197;-64
2021/12/10 11:38:36;;;;;;;9.33;2.33;;;16.70;99.90;;;;;;5000168;28;20193;-64
2021/12/10 11:41:23;;;;;;;9.87;2.70;;;16.70;99.90;;;;;;5003675;28;20262;-63
2021/12/10 11:47:13;;;;;;;8.07;2.07;;;16.80;99.90;;;;;;5001509;28;20177;-63
2021/12/10 11:49:41;;;;;;;9.00;2.03;;;16.70;99.90;;;;;;5019167;28;20282;-62
2021/12/10 11:52:20;;;;;;;16.43;3.60;;;16.80;99.90;;;;;;4999086;28;20189;-64
2021/12/10 11:55:02;;;;;;;6.33;2.57;;;16.80;99.90;;;;;;4998797;28;21330;-65
2021/12/10 11:57:34;;;;;;;6.47;2.33;;;16.70;99.90;;;;;;5001113;28;20181;-63
2021/12/10 12:00:30;;;;;;;7.63;2.20;;;16.70;99.90;;;;;;4998569;28;20184;-63
2021/12/10 12:03:05;;;;;;;14.13;2.77;;;16.70;99.90;;;;;;5000118;28;20213;-64
2021/12/10 12:05:42;;;;;;;5.07;2.20;;;16.60;99.90;;;;;;5002014;28;21003;-63
2021/12/10 12:08:20;;;;;;;7.10;1.80;;;16.60;99.90;;;;;;4999308;28;20761;-64
2021/12/10 12:10:58;;;;;;;8.83;2.40;;;16.60;99.90;;;;;;5000720;28;20215;-63
2021/12/10 12:13:36;;;;;;;7.40;2.30;;;16.70;99.90;;;;;;5003139;28;20188;-63
2021/12/10 12:16:14;;;;;;;13.17;3.00;;;16.70;99.90;;;;;;4998089;28;20296;-63
2021/12/10 12:18:52;;;;;;;10.07;2.23;;;16.70;99.90;;;;;;5000123;28;20189;-65
2021/12/10 12:27:16;;;;;;;15.50;2.23;;;16.60;99.90;;;;;;5003331;28;20232;-64
2021/12/10 12:29:49;;;;;;;11.47;2.20;;;16.60;99.90;;;;;;4996456;28;20185;-64
2021/12/10 12:32:24;;;;;;;7.30;2.10;;;16.60;99.90;;;;;;5000844;28;20185;-65
2021/12/10 12:34:51;;;;;;;8.93;2.40;;;16.60;99.90;;;;;;5001202;28;20655;-64
2021/12/10 12:37:22;;;;;;;6.40;1.90;;;16.50;99.90;;;;;;4996573;28;20212;-63
2021/12/10 12:39:58;;;;;;;6.67;2.10;;;16.50;99.90;;;;;;5001460;28;20201;-64
2021/12/10 12:42:26;;;;;;;8.67;2.77;;;16.50;99.90;;;;;;4994227;28;20228;-64
2021/12/10 12:44:56;;;;;;;5.17;2.00;;;16.40;99.90;;;;;;5001350;28;20189;-65
2021/12/10 12:47:32;;;;;;;6.47;1.87;;;16.40;99.90;;;;;;5002761;28;20225;-64
2021/12/10 12:50:32;;;;;;;7.33;2.30;;;16.40;99.90;;;;;;5001575;28;21380;-65
2021/12/10 12:53:18;;;;;;;8.00;2.40;;;16.30;99.90;;;;;;4994675;28;20189;-64
2021/12/10 12:55:47;;;;;;;8.40;2.17;;;16.20;99.90;;;;;;5002923;28;20193;-63
2021/12/10 12:58:48;;;;;;;9.63;2.60;;;16.20;99.90;;;;;;5007886;28;20185;-65
2021/12/10 13:01:36;;;;;;;8.90;2.37;;;16.20;99.90;;;;;;5000487;28;20217;-65
2021/12/10 13:04:20;;;;;;;14.20;2.97;;;16.20;99.90;;;;;;5006480;28;20189;-64
2021/12/10 13:06:57;;;;;;;7.53;2.10;;;16.20;99.90;;;;;;5002942;28;20196;-63
2021/12/10 13:09:55;;;;;;;8.73;2.40;;;16.10;99.90;;;;;;5009440;28;20288;-65
2021/12/10 13:15:28;;;;;;;9.97;2.87;;;16.00;99.90;;;;;;5003899;28;20184;-64
2021/12/10 13:18:06;;;;;;;5.17;2.20;;;16.00;99.90;;;;;;5008452;28;20211;-65
2021/12/10 13:20:45;;;;;;;10.23;2.30;;;15.90;99.90;;;;;;5007888;28;20569;-65
2021/12/10 13:23:17;;;;;;;7.03;2.00;;;15.90;99.90;;;;;;5006602;28;20306;-65
2021/12/10 13:25:46;;;;;;;9.23;2.33;;;15.90;99.90;;;;;;5007978;28;20188;-65
2021/12/10 13:28:13;;;;;;;9.77;2.40;;;15.80;99.90;;;;;;5022634;28;20861;-64
2021/12/10 13:30:45;;;;;;;6.70;2.30;;;15.80;99.90;;;;;;5007605;28;20193;-65